Time;durP1;ratioP1;P1;durP2;ratioP2;P2;SDS_P1;SDS_P2;PMS_P1;PMS_P2;Temp;Humidity;BMP_temperature;BMP_pressure;BME280_temperature;BME280_humidity;BME280_pressure;Samples;Min_cycle;Max_cycle;Signal;HPM_P1;HPM_P2
2023/03/17 00:00:13;;;;;;;3.93;1.93;;;2.70;99.90;;;;;;5090462;28;20418;-67
2023/03/17 00:02:44;;;;;;;2.03;1.10;;;2.70;99.90;;;;;;5084873;28;20465;-67
2023/03/17 00:05:16;;;;;;;6.23;1.73;;;2.70;99.90;;;;;;5087603;28;20948;-67
2023/03/17 00:07:42;;;;;;;2.70;1.70;;;2.60;99.90;;;;;;5065874;28;20441;-67
2023/03/17 00:10:24;;;;;;;7.63;2.30;;;2.60;99.90;;;;;;5077352;28;20411;-67
2023/03/17 00:12:52;;;;;;;6.47;2.47;;;2.50;99.90;;;;;;5073168;28;20783;-67
2023/03/17 00:15:19;;;;;;;2.83;1.60;;;2.50;99.90;;;;;;5087844;28;20427;-67
2023/03/17 00:17:46;;;;;;;3.73;1.60;;;2.50;99.90;;;;;;5095156;28;20438;-67
2023/03/17 00:20:21;;;;;;;6.90;1.70;;;2.60;99.90;;;;;;5092785;28;20418;-67
2023/03/17 00:22:47;;;;;;;3.83;1.20;;;2.60;99.90;;;;;;5083097;28;21022;-68
2023/03/17 00:25:20;;;;;;;6.73;1.73;;;2.70;99.90;;;;;;5093644;28;20419;-67
2023/03/17 00:27:47;;;;;;;3.67;1.23;;;2.70;99.90;;;;;;5094166;28;20438;-67
2023/03/17 00:30:13;;;;;;;3.57;1.37;;;2.70;99.90;;;;;;5094728;28;20418;-67
2023/03/17 00:32:40;;;;;;;9.57;1.60;;;2.70;99.90;;;;;;5094248;28;20472;-67
2023/03/17 00:35:23;;;;;;;8.50;2.10;;;2.70;99.90;;;;;;5094400;28;20448;-67
2023/03/17 00:37:51;;;;;;;4.60;1.97;;;2.70;99.90;;;;;;5094639;28;20440;-67
2023/03/17 00:40:23;;;;;;;6.10;1.87;;;2.70;99.90;;;;;;5069998;28;20418;-67
2023/03/17 00:42:50;;;;;;;1.97;1.10;;;2.70;99.90;;;;;;5086256;28;20950;-67
2023/03/17 00:45:17;;;;;;;3.60;1.93;;;2.70;99.90;;;;;;5087051;28;20453;-67
2023/03/17 00:47:44;;;;;;;5.40;1.60;;;2.70;99.90;;;;;;5077661;28;20415;-67
2023/03/17 00:50:12;;;;;;;2.10;1.20;;;2.70;99.90;;;;;;5094780;28;20438;-65
2023/03/17 00:52:38;;;;;;;2.93;1.37;;;2.70;99.90;;;;;;5077922;28;20419;-66
2023/03/17 00:55:05;;;;;;;3.00;1.60;;;2.70;99.90;;;;;;5074551;28;20527;-66
2023/03/17 00:57:30;;;;;;;2.20;1.10;;;2.70;99.90;;;;;;5073917;28;20211;-66
2023/03/17 00:59:56;;;;;;;5.40;2.10;;;2.70;99.90;;;;;;5083696;28;21027;-66
2023/03/17 01:02:23;;;;;;;2.27;1.57;;;2.70;99.90;;;;;;5091302;28;20215;-66
2023/03/17 01:04:49;;;;;;;4.90;1.70;;;2.70;99.90;;;;;;5083066;28;20203;-65
2023/03/17 01:07:15;;;;;;;2.77;1.40;;;2.70;99.90;;;;;;5087134;28;20447;-66
2023/03/17 01:09:41;;;;;;;2.50;1.30;;;2.70;99.90;;;;;;5073894;28;20197;-65
2023/03/17 01:12:11;;;;;;;2.07;1.20;;;2.70;99.90;;;;;;5088884;28;20498;-66
2023/03/17 01:14:37;;;;;;;3.67;1.53;;;2.70;99.90;;;;;;5088055;28;20415;-65
2023/03/17 01:17:02;;;;;;;4.33;1.60;;;2.70;99.90;;;;;;5089957;28;20491;-65
2023/03/17 01:19:28;;;;;;;3.90;1.50;;;2.80;99.90;;;;;;5093599;28;20195;-65
2023/03/17 01:21:53;;;;;;;3.33;1.53;;;2.70;99.90;;;;;;5079540;28;20213;-65
2023/03/17 01:24:19;;;;;;;3.40;1.40;;;2.70;99.90;;;;;;5093953;28;20394;-66
2023/03/17 01:26:45;;;;;;;3.83;1.60;;;2.70;99.90;;;;;;5092712;28;20200;-66
2023/03/17 01:29:11;;;;;;;3.40;1.63;;;2.80;99.90;;;;;;5093295;28;20442;-66
2023/03/17 01:31:37;;;;;;;2.67;1.63;;;2.70;99.90;;;;;;5093058;28;20381;-66
2023/03/17 01:34:04;;;;;;;2.67;1.27;;;2.70;99.90;;;;;;5093440;28;20422;-66
2023/03/17 01:36:30;;;;;;;2.20;0.93;;;2.70;99.90;;;;;;5093653;28;20488;-66
2023/03/17 01:38:56;;;;;;;2.60;1.57;;;2.60;99.90;;;;;;5084221;28;20478;-67
2023/03/17 01:41:21;;;;;;;2.93;1.83;;;2.60;99.90;;;;;;5086402;28;20204;-66
2023/03/17 01:43:47;;;;;;;3.07;1.40;;;2.60;99.90;;;;;;5080590;28;20195;-66
2023/03/17 01:46:23;;;;;;;2.53;1.03;;;2.60;99.90;;;;;;5076540;28;20290;-66
2023/03/17 01:49:08;;;;;;;3.40;1.50;;;2.70;99.90;;;;;;5079262;28;20172;-66
2023/03/17 01:51:39;;;;;;;3.47;1.60;;;2.70;99.90;;;;;;5093223;28;20425;-66
2023/03/17 01:54:15;;;;;;;3.20;1.20;;;2.80;99.90;;;;;;5093016;28;20444;-65
2023/03/17 01:56:43;;;;;;;4.07;1.40;;;2.80;99.90;;;;;;5084576;28;21191;-66
2023/03/17 01:59:13;;;;;;;2.90;1.23;;;2.80;99.90;;;;;;5087843;28;20430;-67
2023/03/17 02:01:44;;;;;;;2.03;1.07;;;2.80;99.90;;;;;;5092245;28;20430;-67
2023/03/17 02:04:11;;;;;;;2.37;0.90;;;2.80;99.90;;;;;;5092394;28;20422;-67
2023/03/17 02:06:38;;;;;;;7.90;1.53;;;2.80;99.90;;;;;;5090887;28;20468;-67
2023/03/17 02:09:03;;;;;;;2.43;1.10;;;2.80;99.90;;;;;;5073964;28;20423;-67
2023/03/17 02:11:30;;;;;;;2.03;1.30;;;2.80;99.90;;;;;;5082314;28;20427;-67
2023/03/17 02:13:56;;;;;;;4.33;1.43;;;2.70;99.90;;;;;;5091717;28;20258;-67
2023/03/17 02:16:22;;;;;;;2.20;0.90;;;2.80;99.90;;;;;;5081588;28;20470;-67
2023/03/17 02:18:48;;;;;;;2.90;1.17;;;2.80;99.90;;;;;;5069702;28;20189;-65
2023/03/17 02:21:35;;;;;;;3.93;1.50;;;2.80;99.90;;;;;;5074278;28;20177;-65
2023/03/17 02:24:04;;;;;;;2.40;1.40;;;2.90;99.90;;;;;;5079383;28;20184;-65
2023/03/17 02:26:33;;;;;;;5.80;1.30;;;3.00;99.90;;;;;;5072025;28;20728;-65
2023/03/17 02:28:59;;;;;;;4.67;1.50;;;3.10;99.90;;;;;;5064901;28;20418;-66
2023/03/17 02:31:25;;;;;;;4.90;1.73;;;3.10;99.90;;;;;;5092398;28;20425;-65
2023/03/17 02:33:52;;;;;;;4.13;1.33;;;3.10;99.90;;;;;;5091923;28;20538;-66
2023/03/17 02:36:18;;;;;;;3.73;1.07;;;3.00;99.90;;;;;;5089466;28;20853;-66
2023/03/17 02:38:43;;;;;;;1.47;0.83;;;2.90;99.90;;;;;;5065441;28;20414;-65
2023/03/17 02:41:09;;;;;;;4.03;1.40;;;2.80;99.90;;;;;;5084690;28;20605;-66
2023/03/17 02:43:35;;;;;;;4.70;1.53;;;2.90;99.90;;;;;;5079205;28;20219;-67
2023/03/17 02:46:01;;;;;;;3.40;1.30;;;2.80;99.90;;;;;;5075205;28;20291;-65
2023/03/17 02:48:27;;;;;;;2.90;1.17;;;2.80;99.90;;;;;;5079124;28;20176;-65
2023/03/17 02:50:53;;;;;;;2.37;0.93;;;2.80;99.90;;;;;;5090010;28;20442;-65
2023/03/17 02:53:18;;;;;;;3.53;1.77;;;2.80;99.90;;;;;;5070809;28;20752;-65
2023/03/17 02:55:44;;;;;;;2.80;1.50;;;2.80;99.90;;;;;;5085619;28;20241;-66
2023/03/17 02:58:10;;;;;;;2.17;1.00;;;2.80;99.90;;;;;;5090941;28;20184;-67
2023/03/17 03:00:37;;;;;;;2.40;1.23;;;2.80;99.90;;;;;;5091169;28;20184;-66
2023/03/17 03:03:03;;;;;;;2.00;1.53;;;2.80;99.90;;;;;;5090390;28;20628;-65
2023/03/17 03:05:29;;;;;;;4.37;2.03;;;2.80;99.90;;;;;;5090860;28;20812;-66
2023/03/17 03:07:54;;;;;;;4.90;1.47;;;2.80;99.90;;;;;;5074774;28;20622;-65
2023/03/17 03:10:20;;;;;;;3.53;1.83;;;2.80;99.90;;;;;;5075654;28;20191;-65
2023/03/17 03:12:46;;;;;;;4.57;2.17;;;2.80;99.90;;;;;;5082297;28;20946;-65
2023/03/17 03:15:12;;;;;;;2.37;1.03;;;2.90;99.90;;;;;;5071688;28;20265;-65
2023/03/17 03:17:37;;;;;;;6.63;1.60;;;2.90;99.90;;;;;;5083972;28;20521;-65
2023/03/17 03:20:04;;;;;;;5.80;1.60;;;2.90;99.90;;;;;;5090924;28;20938;-65
2023/03/17 03:22:30;;;;;;;4.00;2.17;;;2.90;99.90;;;;;;5081617;28;20204;-65
2023/03/17 03:24:55;;;;;;;5.90;1.50;;;2.90;99.90;;;;;;5091070;28;20426;-65
2023/03/17 03:27:21;;;;;;;3.60;1.67;;;2.90;99.90;;;;;;5090784;28;20191;-65
2023/03/17 03:29:47;;;;;;;2.37;1.30;;;2.90;99.90;;;;;;5085945;28;20180;-65
2023/03/17 03:32:12;;;;;;;4.80;1.83;;;2.80;99.90;;;;;;5077785;28;20225;-66
2023/03/17 03:34:38;;;;;;;2.00;1.10;;;2.80;99.90;;;;;;5090582;28;20255;-66
2023/03/17 03:37:04;;;;;;;4.83;1.87;;;2.70;99.90;;;;;;5083510;28;20214;-65
2023/03/17 03:39:29;;;;;;;1.60;0.90;;;2.70;99.90;;;;;;5083291;28;20271;-65
2023/03/17 03:41:57;;;;;;;2.50;1.20;;;2.70;99.90;;;;;;5090331;28;20207;-65
2023/03/17 03:44:23;;;;;;;2.67;1.10;;;2.70;99.90;;;;;;5087602;28;20707;-65
2023/03/17 03:46:48;;;;;;;1.77;1.00;;;2.60;99.90;;;;;;5070329;28;20500;-65
2023/03/17 03:49:14;;;;;;;9.00;1.40;;;2.50;99.90;;;;;;5083776;28;20414;-65
2023/03/17 03:51:40;;;;;;;4.43;1.77;;;2.50;99.90;;;;;;5077822;28;20565;-66
2023/03/17 03:54:06;;;;;;;3.53;2.13;;;2.40;99.90;;;;;;5090637;28;20628;-65
2023/03/17 03:56:32;;;;;;;4.17;0.93;;;2.30;99.90;;;;;;5090722;28;20424;-65
2023/03/17 03:58:57;;;;;;;2.80;1.30;;;2.30;99.90;;;;;;5090272;28;20501;-66
2023/03/17 04:01:23;;;;;;;4.33;1.30;;;2.30;99.90;;;;;;5075543;28;20183;-66
2023/03/17 04:03:50;;;;;;;3.50;1.83;;;2.20;99.90;;;;;;5084266;28;20291;-66
2023/03/17 04:06:16;;;;;;;4.63;1.70;;;2.20;99.90;;;;;;5089144;28;20196;-66
2023/03/17 04:08:41;;;;;;;1.97;0.97;;;2.10;99.90;;;;;;5072238;28;20428;-66
2023/03/17 04:11:07;;;;;;;2.17;1.27;;;2.10;99.90;;;;;;5080876;28;20425;-66
2023/03/17 04:13:33;;;;;;;1.90;0.93;;;2.10;99.90;;;;;;5089846;28;20204;-66
2023/03/17 04:16:00;;;;;;;2.57;1.60;;;2.10;99.90;;;;;;5089735;28;20191;-66
2023/03/17 04:18:25;;;;;;;3.50;1.60;;;2.10;99.90;;;;;;5084541;28;20180;-66
2023/03/17 04:20:51;;;;;;;2.13;1.30;;;2.00;99.90;;;;;;5084714;28;20491;-66
2023/03/17 04:23:17;;;;;;;2.67;1.10;;;2.00;99.90;;;;;;5070843;28;20208;-66
2023/03/17 04:25:43;;;;;;;2.80;1.27;;;2.00;99.90;;;;;;5090605;28;20325;-66
2023/03/17 04:28:11;;;;;;;2.37;1.30;;;1.90;99.90;;;;;;5089714;28;20460;-66
2023/03/17 04:30:36;;;;;;;8.33;1.50;;;2.00;99.90;;;;;;5082458;28;20757;-66
2023/03/17 04:33:02;;;;;;;2.90;1.53;;;1.90;99.90;;;;;;5069768;28;20458;-66
2023/03/17 04:35:28;;;;;;;2.87;1.40;;;1.90;99.90;;;;;;5080310;28;20602;-66
2023/03/17 04:37:54;;;;;;;3.47;1.37;;;1.90;99.90;;;;;;5084534;28;20522;-66
2023/03/17 04:40:20;;;;;;;3.20;1.77;;;2.00;99.90;;;;;;5090580;28;20411;-66
2023/03/17 04:42:46;;;;;;;3.33;1.50;;;2.00;99.90;;;;;;5089141;28;20251;-66
2023/03/17 04:45:15;;;;;;;2.93;1.77;;;2.00;99.90;;;;;;5080927;28;20184;-66
2023/03/17 04:47:42;;;;;;;3.63;2.20;;;2.00;99.90;;;;;;5071323;28;20283;-66
2023/03/17 04:50:08;;;;;;;5.00;2.43;;;1.90;99.90;;;;;;5091540;28;20418;-66
2023/03/17 04:52:35;;;;;;;4.30;2.10;;;2.00;99.90;;;;;;5092988;28;20886;-66
2023/03/17 04:55:01;;;;;;;4.23;1.93;;;2.00;99.90;;;;;;5091460;28;20426;-66
2023/03/17 04:57:27;;;;;;;2.93;1.60;;;1.90;99.90;;;;;;5093642;28;20453;-66
2023/03/17 04:59:52;;;;;;;4.70;1.57;;;1.90;99.90;;;;;;5092371;28;20207;-66
2023/03/17 05:02:18;;;;;;;4.90;1.83;;;1.80;99.90;;;;;;5088373;28;20583;-66
2023/03/17 05:04:45;;;;;;;3.57;1.87;;;1.80;99.90;;;;;;5091138;28;20621;-66
2023/03/17 05:07:11;;;;;;;5.77;1.83;;;1.80;99.90;;;;;;5082188;28;20196;-66
2023/03/17 05:09:37;;;;;;;3.53;2.03;;;1.80;99.90;;;;;;5076706;28;20434;-66
2023/03/17 05:12:03;;;;;;;5.73;2.73;;;1.80;99.90;;;;;;5085984;28;20993;-66
2023/03/17 05:14:28;;;;;;;10.17;3.03;;;1.70;99.90;;;;;;5085180;28;20188;-66
2023/03/17 05:16:54;;;;;;;5.80;3.30;;;1.70;99.90;;;;;;5081202;28;20184;-66
2023/03/17 05:19:20;;;;;;;4.60;2.50;;;1.70;99.90;;;;;;5091806;28;20196;-66
2023/03/17 05:21:46;;;;;;;3.57;2.20;;;1.60;99.90;;;;;;5083686;28;20177;-65
2023/03/17 05:24:12;;;;;;;3.77;2.13;;;1.60;99.90;;;;;;5093448;28;20179;-66
2023/03/17 05:26:38;;;;;;;4.17;1.77;;;1.50;99.90;;;;;;5088888;28;20427;-66
2023/03/17 05:29:03;;;;;;;5.70;2.10;;;1.50;99.90;;;;;;5093144;28;20172;-66
2023/03/17 05:31:30;;;;;;;3.90;2.30;;;1.40;99.90;;;;;;5092293;28;20418;-65
2023/03/17 05:33:56;;;;;;;3.73;2.07;;;1.40;99.90;;;;;;5092481;28;20544;-66
2023/03/17 05:36:21;;;;;;;3.30;1.53;;;1.40;99.90;;;;;;5093284;28;20422;-65
2023/03/17 05:38:47;;;;;;;3.63;1.63;;;1.40;99.90;;;;;;5092987;28;20464;-67
2023/03/17 05:41:13;;;;;;;3.77;1.90;;;1.40;99.90;;;;;;5090532;28;20564;-66
2023/03/17 05:43:38;;;;;;;2.30;1.37;;;1.40;99.90;;;;;;5080153;28;20246;-66
2023/03/17 05:46:04;;;;;;;3.77;2.00;;;1.40;99.90;;;;;;5076323;28;20184;-66
2023/03/17 05:48:31;;;;;;;4.70;1.93;;;1.40;99.90;;;;;;5080517;28;20711;-66
2023/03/17 05:50:56;;;;;;;4.20;2.10;;;1.40;99.90;;;;;;5077646;28;20430;-66
2023/03/17 05:53:22;;;;;;;2.20;1.40;;;1.30;99.90;;;;;;5078969;28;21059;-66
2023/03/17 05:55:47;;;;;;;4.13;1.77;;;1.40;99.90;;;;;;5077833;28;20185;-66
2023/03/17 05:58:15;;;;;;;2.60;1.53;;;1.50;99.90;;;;;;5079925;28;20255;-66
2023/03/17 06:00:42;;;;;;;11.30;2.77;;;1.50;99.90;;;;;;5084127;28;20774;-66
2023/03/17 06:03:08;;;;;;;9.90;3.07;;;1.50;99.90;;;;;;5079516;28;21011;-66
2023/03/17 06:05:34;;;;;;;5.00;3.10;;;1.50;99.90;;;;;;5091779;28;20414;-66
2023/03/17 06:08:00;;;;;;;10.17;4.77;;;1.50;99.90;;;;;;5078843;28;20201;-66
2023/03/17 06:10:26;;;;;;;62.43;13.43;;;1.60;99.90;;;;;;5075798;28;20489;-67
2023/03/17 06:12:52;;;;;;;48.40;13.53;;;1.60;99.90;;;;;;5091791;28;20184;-66
2023/03/17 06:15:18;;;;;;;49.70;15.53;;;1.60;99.90;;;;;;5091260;28;20840;-66
2023/03/17 06:17:44;;;;;;;62.23;17.90;;;1.60;99.90;;;;;;5079934;28;20460;-67
2023/03/17 06:20:11;;;;;;;42.87;11.20;;;1.70;99.90;;;;;;5091582;28;20493;-66
2023/03/17 06:22:38;;;;;;;26.13;8.20;;;1.70;99.90;;;;;;5074055;28;20657;-66
2023/03/17 06:25:04;;;;;;;22.50;7.73;;;1.70;99.90;;;;;;5086990;28;20415;-66
2023/03/17 06:27:31;;;;;;;15.37;4.60;;;1.80;99.90;;;;;;5091690;28;20498;-66
2023/03/17 06:29:58;;;;;;;12.53;5.43;;;1.80;99.90;;;;;;5091142;28;20421;-66
2023/03/17 06:32:23;;;;;;;11.03;4.07;;;1.80;99.90;;;;;;5077922;28;20466;-66
2023/03/17 06:34:50;;;;;;;11.40;2.87;;;1.80;99.90;;;;;;5086578;28;20887;-66
2023/03/17 06:37:16;;;;;;;6.00;2.70;;;1.90;99.90;;;;;;5091790;28;20198;-67
2023/03/17 06:39:42;;;;;;;6.53;2.63;;;2.00;99.90;;;;;;5091900;28;20423;-66
2023/03/17 06:42:08;;;;;;;9.37;3.10;;;2.10;99.90;;;;;;5090593;28;20687;-66
2023/03/17 06:44:35;;;;;;;4.67;2.80;;;2.20;99.90;;;;;;5077008;28;20506;-66
2023/03/17 06:47:01;;;;;;;5.10;2.43;;;2.40;99.90;;;;;;5070954;28;20425;-68
2023/03/17 06:49:26;;;;;;;7.73;2.37;;;2.50;99.90;;;;;;5073698;28;20509;-66
2023/03/17 06:51:52;;;;;;;5.07;2.43;;;2.70;99.90;;;;;;5080879;28;20703;-67
2023/03/17 06:54:20;;;;;;;11.73;4.70;;;2.80;99.90;;;;;;5087520;28;20604;-66
2023/03/17 06:56:46;;;;;;;12.07;3.50;;;3.10;99.90;;;;;;5091670;28;20421;-66
2023/03/17 06:59:12;;;;;;;10.70;3.90;;;3.40;99.90;;;;;;5090327;28;20463;-65
2023/03/17 07:01:38;;;;;;;13.80;3.97;;;3.70;99.90;;;;;;5084364;28;20467;-65
2023/03/17 07:04:04;;;;;;;11.63;3.67;;;3.90;99.90;;;;;;5088077;28;20200;-66
2023/03/17 07:06:30;;;;;;;5.43;2.67;;;4.30;99.90;;;;;;5080063;28;20415;-66
2023/03/17 07:08:56;;;;;;;7.50;3.17;;;4.50;99.90;;;;;;5073598;28;21256;-65
2023/03/17 07:11:22;;;;;;;10.43;3.30;;;4.80;99.90;;;;;;5081053;28;20189;-66
2023/03/17 07:13:48;;;;;;;6.40;2.63;;;5.00;99.90;;;;;;5089503;28;20461;-65
2023/03/17 07:16:15;;;;;;;10.97;4.23;;;5.30;99.90;;;;;;5088374;28;20451;-65
2023/03/17 07:18:42;;;;;;;9.37;3.50;;;5.50;99.90;;;;;;5087707;28;20180;-66
2023/03/17 07:21:08;;;;;;;11.53;3.73;;;5.70;99.90;;;;;;5085988;28;20772;-66
2023/03/17 07:23:33;;;;;;;8.70;3.60;;;6.00;99.90;;;;;;5086908;28;20500;-66
2023/03/17 07:26:00;;;;;;;5.30;2.43;;;6.30;99.90;;;;;;5091413;28;20638;-66
2023/03/17 07:28:25;;;;;;;9.97;2.57;;;6.50;99.90;;;;;;5090241;28;20172;-63
2023/03/17 07:30:51;;;;;;;5.40;2.77;;;6.80;99.70;;;;;;5091102;28;20414;-69
2023/03/17 07:33:21;;;;;;;7.00;1.20;;;7.20;99.80;;;;;;5090279;28;20196;-67
2023/03/17 07:35:48;;;;;;;7.90;1.60;;;7.70;98.30;;;;;;5090368;28;20289;-67
2023/03/17 07:38:15;;;;;;;2.50;1.07;;;8.40;95.30;;;;;;5090679;28;20453;-67
2023/03/17 07:40:42;;;;;;;2.10;1.00;;;8.90;93.10;;;;;;5080296;28;20553;-67
2023/03/17 07:43:07;;;;;;;1.90;1.00;;;9.80;88.70;;;;;;5082866;28;20550;-67
2023/03/17 07:45:34;;;;;;;1.90;1.13;;;10.10;83.60;;;;;;5070554;28;20842;-67
2023/03/17 07:48:02;;;;;;;3.57;1.80;;;10.10;85.10;;;;;;5074705;28;20694;-67
2023/03/17 07:50:27;;;;;;;4.00;1.43;;;10.30;85.40;;;;;;5090699;28;20430;-67
2023/03/17 07:52:53;;;;;;;2.00;1.30;;;10.80;84.50;;;;;;5090226;28;20418;-67
2023/03/17 07:55:19;;;;;;;3.30;1.03;;;11.30;80.80;;;;;;5090533;28;20180;-67
2023/03/17 07:57:45;;;;;;;2.30;0.93;;;11.80;78.90;;;;;;5089750;28;20190;-67
2023/03/17 08:00:12;;;;;;;2.70;0.80;;;12.20;75.20;;;;;;5085694;28;20181;-65
2023/03/17 08:02:38;;;;;;;2.53;0.97;;;12.40;75.00;;;;;;5083193;28;20564;-65
2023/03/17 08:05:06;;;;;;;3.70;1.90;;;12.80;71.90;;;;;;5080695;28;20905;-66
2023/03/17 08:07:32;;;;;;;2.40;1.37;;;12.60;72.60;;;;;;5080805;28;20419;-66
2023/03/17 08:09:58;;;;;;;3.10;1.23;;;12.40;72.60;;;;;;5072616;28;20793;-67
2023/03/17 08:12:24;;;;;;;1.90;0.93;;;12.20;71.90;;;;;;5086554;28;20498;-66
2023/03/17 08:14:50;;;;;;;2.60;1.00;;;12.00;74.00;;;;;;5090084;28;20184;-65
2023/03/17 08:17:16;;;;;;;3.93;0.70;;;11.90;74.70;;;;;;5082645;28;20504;-67
2023/03/17 08:19:42;;;;;;;2.27;1.00;;;11.70;73.50;;;;;;5065780;28;20515;-67
2023/03/17 08:22:09;;;;;;;1.50;0.70;;;11.90;72.00;;;;;;5068374;28;20587;-67
2023/03/17 08:24:35;;;;;;;2.90;1.23;;;11.70;73.10;;;;;;5072324;28;20414;-67
2023/03/17 08:27:02;;;;;;;2.40;1.00;;;12.00;73.60;;;;;;5073381;28;20454;-67
2023/03/17 08:29:29;;;;;;;3.00;1.17;;;12.00;73.00;;;;;;5065998;28;20899;-67
2023/03/17 08:31:56;;;;;;;2.07;1.07;;;11.70;74.50;;;;;;5075431;28;20526;-67
2023/03/17 08:34:23;;;;;;;2.13;0.90;;;11.90;72.20;;;;;;5084085;28;20760;-67
2023/03/17 08:36:49;;;;;;;4.43;1.50;;;12.10;72.00;;;;;;5093876;28;20421;-67
2023/03/17 08:39:15;;;;;;;5.80;1.43;;;12.20;72.60;;;;;;5092584;28;20866;-67
2023/03/17 08:41:40;;;;;;;3.83;1.37;;;12.10;73.30;;;;;;5093252;28;20434;-67
2023/03/17 08:44:07;;;;;;;3.63;1.10;;;11.90;73.50;;;;;;5093378;28;20231;-65
2023/03/17 08:46:33;;;;;;;6.23;1.47;;;11.80;73.60;;;;;;5073605;28;20256;-66
2023/03/17 08:49:00;;;;;;;2.13;1.13;;;11.70;74.30;;;;;;5085384;28;20456;-65
2023/03/17 08:51:28;;;;;;;3.37;1.20;;;11.70;73.90;;;;;;5092640;28;20497;-65
2023/03/17 08:53:55;;;;;;;3.50;1.30;;;11.40;75.60;;;;;;5093389;28;20414;-65
2023/03/17 08:56:21;;;;;;;1.80;1.13;;;11.30;76.20;;;;;;5093114;28;20414;-65
2023/03/17 08:58:47;;;;;;;2.40;1.10;;;11.30;78.20;;;;;;5092660;28;20883;-65
2023/03/17 09:01:14;;;;;;;2.60;1.27;;;11.60;78.60;;;;;;5079728;28;20745;-66
2023/03/17 09:03:41;;;;;;;2.93;1.10;;;12.40;75.40;;;;;;5083979;28;20453;-66
2023/03/17 09:06:10;;;;;;;2.70;1.10;;;13.30;71.10;;;;;;5092568;28;20872;-66
2023/03/17 09:08:43;;;;;;;3.17;0.87;;;13.40;71.80;;;;;;5074553;28;20434;-66
2023/03/17 09:11:13;;;;;;;10.30;1.37;;;13.60;72.70;;;;;;5082710;28;20446;-66
2023/03/17 09:13:40;;;;;;;2.20;1.00;;;14.10;70.90;;;;;;5091911;28;20414;-66
2023/03/17 09:16:07;;;;;;;3.03;1.10;;;14.70;70.90;;;;;;5090536;28;20423;-66
2023/03/17 09:18:33;;;;;;;1.40;0.63;;;14.90;71.00;;;;;;5088048;28;20771;-66
2023/03/17 09:21:01;;;;;;;2.10;1.00;;;15.20;69.30;;;;;;5087260;28;20473;-66
2023/03/17 09:23:27;;;;;;;2.60;1.40;;;15.30;67.90;;;;;;5088120;28;20556;-65
2023/03/17 09:25:52;;;;;;;2.23;0.90;;;15.20;68.60;;;;;;5092361;28;20530;-66
2023/03/17 09:28:18;;;;;;;2.03;1.20;;;14.80;69.30;;;;;;5091959;28;20212;-67
2023/03/17 09:30:44;;;;;;;2.20;1.13;;;14.70;68.40;;;;;;5083088;28;20217;-66
2023/03/17 09:33:11;;;;;;;2.53;1.07;;;14.60;69.30;;;;;;5086592;28;20641;-66
2023/03/17 09:35:38;;;;;;;2.27;1.13;;;14.60;68.70;;;;;;5083470;28;20505;-66
2023/03/17 09:38:05;;;;;;;1.83;1.00;;;14.70;70.10;;;;;;5092344;28;20422;-65
2023/03/17 09:40:35;;;;;;;2.73;1.47;;;14.90;70.70;;;;;;5092553;28;20428;-65
2023/03/17 09:43:18;;;;;;;1.50;0.80;;;15.20;69.10;;;;;;5091053;28;20568;-66
2023/03/17 09:45:44;;;;;;;2.57;1.17;;;15.50;66.50;;;;;;5077057;28;20415;-66
2023/03/17 09:48:35;;;;;;;2.50;1.10;;;15.80;68.00;;;;;;5077498;28;20410;-66
2023/03/17 09:51:10;;;;;;;3.30;0.80;;;15.90;67.60;;;;;;5091577;28;20418;-65
2023/03/17 09:54:09;;;;;;;1.60;0.67;;;15.60;66.10;;;;;;5091522;28;20902;-64
2023/03/17 09:56:39;;;;;;;1.50;0.80;;;15.40;67.60;;;;;;5090598;28;20442;-64
2023/03/17 09:59:26;;;;;;;1.90;1.03;;;15.40;68.20;;;;;;5091232;28;20505;-65
2023/03/17 10:01:52;;;;;;;1.70;0.97;;;15.50;68.00;;;;;;5084404;28;20430;-65
2023/03/17 10:04:18;;;;;;;1.37;0.63;;;15.50;67.50;;;;;;5090460;28;20437;-66
2023/03/17 10:06:48;;;;;;;1.37;0.67;;;15.70;65.20;;;;;;5088862;28;20172;-66
2023/03/17 10:09:25;;;;;;;3.93;1.00;;;15.90;66.20;;;;;;5075159;28;20463;-66
2023/03/17 10:12:15;;;;;;;1.80;0.60;;;16.00;65.10;;;;;;5083942;28;20422;-65
2023/03/17 10:14:54;;;;;;;1.60;0.83;;;16.10;62.90;;;;;;5086856;28;20469;-65
2023/03/17 10:17:21;;;;;;;1.80;0.70;;;16.30;65.20;;;;;;5084484;28;20434;-66
2023/03/17 10:20:05;;;;;;;1.50;0.60;;;16.50;63.30;;;;;;5079202;28;20924;-66
2023/03/17 10:22:45;;;;;;;1.77;0.60;;;16.60;61.80;;;;;;5075166;28;20457;-66
2023/03/17 10:25:21;;;;;;;1.40;0.80;;;16.80;59.80;;;;;;5092025;28;20453;-66
2023/03/17 10:27:56;;;;;;;1.20;0.50;;;16.90;62.30;;;;;;5091089;28;20410;-66
2023/03/17 10:30:22;;;;;;;1.30;0.60;;;17.00;64.00;;;;;;5089715;28;20469;-66
2023/03/17 10:32:51;;;;;;;1.70;0.90;;;17.10;61.30;;;;;;5090845;28;20423;-66
2023/03/17 10:35:17;;;;;;;3.20;0.97;;;17.20;61.80;;;;;;5090530;28;20419;-65
2023/03/17 10:37:45;;;;;;;2.53;0.90;;;17.10;60.40;;;;;;5078496;28;20841;-65
2023/03/17 10:40:25;;;;;;;1.43;0.70;;;16.90;59.00;;;;;;5090442;28;20440;-65
2023/03/17 10:43:20;;;;;;;3.63;0.93;;;16.80;60.20;;;;;;5089553;28;21195;-65
2023/03/17 10:45:58;;;;;;;4.50;1.20;;;16.80;58.30;;;;;;5076445;28;20522;-66
2023/03/17 10:48:24;;;;;;;2.40;1.00;;;16.80;58.40;;;;;;5077488;28;20947;-65
2023/03/17 10:50:50;;;;;;;2.17;1.13;;;16.60;60.00;;;;;;5089500;28;20422;-65
2023/03/17 10:53:27;;;;;;;3.53;0.90;;;16.70;60.20;;;;;;5070727;28;20181;-65
2023/03/17 10:55:57;;;;;;;2.70;1.20;;;16.70;59.90;;;;;;5071917;28;20196;-65
2023/03/17 10:58:47;;;;;;;4.27;1.10;;;16.80;60.00;;;;;;5089907;28;20410;-65
2023/03/17 11:01:26;;;;;;;1.57;0.60;;;16.80;60.90;;;;;;5084942;28;20866;-65
2023/03/17 11:03:52;;;;;;;1.40;0.60;;;16.90;61.10;;;;;;5087868;28;20473;-65
2023/03/17 11:06:25;;;;;;;1.30;0.50;;;17.00;61.70;;;;;;5079195;28;20468;-65
2023/03/17 11:08:54;;;;;;;2.37;0.77;;;17.20;58.60;;;;;;5068544;28;20246;-66
2023/03/17 11:11:29;;;;;;;2.13;0.80;;;17.40;57.00;;;;;;5070807;28;20442;-66
2023/03/17 11:14:12;;;;;;;3.20;0.73;;;17.50;57.00;;;;;;5083353;28;20423;-65
2023/03/17 11:16:47;;;;;;;1.63;0.70;;;17.50;57.70;;;;;;5070881;28;20450;-65
2023/03/17 11:19:15;;;;;;;9.83;0.90;;;17.50;58.50;;;;;;5090273;28;20422;-66
2023/03/17 11:21:58;;;;;;;1.70;0.60;;;17.50;57.00;;;;;;5082555;28;20426;-65
2023/03/17 11:24:32;;;;;;;2.17;1.10;;;17.50;57.80;;;;;;5078999;28;20769;-65
2023/03/17 11:26:58;;;;;;;3.30;0.97;;;17.70;57.10;;;;;;5083423;28;20420;-66
2023/03/17 11:29:56;;;;;;;3.27;0.87;;;17.80;55.80;;;;;;5081864;28;20410;-65
2023/03/17 11:32:32;;;;;;;1.70;0.80;;;18.00;58.20;;;;;;5067734;28;20585;-66
2023/03/17 11:35:34;;;;;;;1.30;0.60;;;18.40;54.20;;;;;;5071668;28;20415;-65
2023/03/17 11:38:11;;;;;;;1.83;0.67;;;18.70;54.10;;;;;;5082982;28;20426;-65
2023/03/17 11:41:02;;;;;;;1.50;0.60;;;18.90;53.90;;;;;;5089708;28;20414;-65
2023/03/17 11:43:51;;;;;;;1.87;0.80;;;19.00;54.50;;;;;;5089175;28;20473;-65
2023/03/17 11:46:35;;;;;;;2.43;0.77;;;19.10;52.60;;;;;;5072152;28;20442;-66
2023/03/17 11:49:23;;;;;;;3.07;0.77;;;19.20;52.10;;;;;;5069836;28;20801;-66
2023/03/17 11:52:25;;;;;;;4.23;0.90;;;19.10;53.40;;;;;;5067806;28;20501;-67
2023/03/17 11:54:54;;;;;;;1.73;0.70;;;19.30;49.50;;;;;;5064651;28;20414;-66
2023/03/17 11:57:44;;;;;;;1.60;0.50;;;19.00;52.20;;;;;;5089550;28;20422;-66
2023/03/17 12:00:22;;;;;;;1.50;0.60;;;19.00;53.90;;;;;;5078727;28;20435;-67
2023/03/17 12:02:58;;;;;;;2.00;0.80;;;18.90;50.60;;;;;;5086608;28;20466;-66
2023/03/17 12:05:26;;;;;;;1.53;0.70;;;18.90;50.80;;;;;;5088225;28;20449;-66
2023/03/17 12:07:59;;;;;;;1.50;0.80;;;19.00;50.90;;;;;;5082233;28;20421;-66
2023/03/17 12:10:45;;;;;;;3.73;0.70;;;18.90;52.90;;;;;;5074682;28;20415;-66
2023/03/17 12:13:19;;;;;;;2.70;0.93;;;18.90;52.70;;;;;;5093192;28;20418;-66
2023/03/17 12:16:02;;;;;;;1.73;0.83;;;19.00;53.90;;;;;;5080678;28;20414;-67
2023/03/17 12:18:37;;;;;;;12.83;1.13;;;19.00;51.70;;;;;;5081476;28;20457;-67
2023/03/17 12:21:19;;;;;;;1.60;0.70;;;19.00;52.20;;;;;;5087706;28;20808;-67
2023/03/17 12:24:10;;;;;;;2.97;0.80;;;19.00;51.80;;;;;;5077644;28;20573;-67
2023/03/17 12:27:17;;;;;;;2.10;0.70;;;18.90;52.50;;;;;;5089392;28;20794;-68
2023/03/17 12:29:52;;;;;;;1.60;0.70;;;18.80;50.90;;;;;;5078492;28;20423;-67
2023/03/17 12:32:28;;;;;;;3.93;0.70;;;18.60;48.80;;;;;;5081776;28;20413;-66
2023/03/17 12:35:01;;;;;;;1.67;0.60;;;18.60;50.30;;;;;;5090875;28;20509;-66
2023/03/17 12:37:29;;;;;;;1.60;0.70;;;18.60;50.30;;;;;;5085131;28;20413;-66
2023/03/17 12:40:06;;;;;;;1.30;0.50;;;18.70;49.90;;;;;;5094257;28;20410;-66
2023/03/17 12:42:59;;;;;;;1.47;0.50;;;18.80;49.50;;;;;;5092668;28;20977;-66
2023/03/17 12:45:45;;;;;;;1.40;0.67;;;18.80;51.60;;;;;;5082427;28;20415;-66
2023/03/17 12:48:26;;;;;;;1.30;0.50;;;19.00;49.80;;;;;;5080132;28;20402;-66
2023/03/17 12:51:16;;;;;;;2.20;0.70;;;19.00;49.90;;;;;;5092853;28;20414;-66
2023/03/17 12:53:46;;;;;;;1.20;0.50;;;19.00;47.30;;;;;;5093042;28;20422;-66
2023/03/17 12:56:31;;;;;;;1.30;0.50;;;18.90;49.60;;;;;;5086249;28;20419;-66
2023/03/17 12:59:02;;;;;;;1.40;0.50;;;18.90;49.20;;;;;;5073542;28;20553;-67
2023/03/17 13:01:33;;;;;;;1.40;0.60;;;19.00;51.40;;;;;;5086895;28;20929;-66
2023/03/17 13:04:07;;;;;;;1.30;0.53;;;18.90;51.10;;;;;;5092547;28;20461;-67